Airfield :
LOGIN :

Register | Disclaimer

   EN    FR    IT 

 










Legend :    VFR   Marginal VFR   IFR   Intensive IFR   Very Intensive IFR
Visi :
Ceiling :
>= 8 km
>= 3000ft
5 to 8 km
1000 to 3000 ft
1500m to 5 km
500 to 1000 ft
800 to 1500m
200 to 500 ft
< 800m
< 200 ft
Symbols :   Thunderstorms  Fog  Heavy snow  Heavy precipitations  Wind > 20 kt
SIGMETs :     Misc.  Thunderstorms  Icing  Turbulence  Mountain Waves  Volcanic Ashes







- Airport Elevation : 53 ft
- IATA code : HAM


EDDH - Hamburg

CURRENT METAR :
  • 211720Z 29009KT 9999 BKN017 11/07 Q1032 NOSIG

EXPIRED METARs :
  • 211650Z 29009KT 9999 BKN018 11/07 Q1032 NOSIG
  • 211620Z 29009KT 9999 BKN020 11/08 Q1032 NOSIG
  • 211550Z 29007KT 9999 BKN020 12/08 Q1032 NOSIG
  • 211520Z 29007KT 9999 BKN019 12/08 Q1032 NOSIG
  • 211450Z 30009KT 9999 BKN018 12/08 Q1032 NOSIG

TAF TAF EDDH
Valid from the 21 at 12:00 until the 22 at 18:00 UTC


211100Z 2112/2218 25010KT 8000 BKN011
BECMG 2112/2115 BKN015
BECMG 2116/2119 VRB03KT BKN013
TEMPO 2121/2209 3500 BR BKN007
PROB40
TEMPO 2200/2208 0600 FG BKN001
BECMG 2208/2211 12006KT SCT013
No reported NOTAMs for that airfield.



MET'MAP, your aeronautical weather chart ! - Copyright ORBIFLY December 2007 - Disclaimer

ORBIFLY MET'MAP TEAM :

Programming & Development : Alexandra Zaïnal
Concept & Development : Baudouin d'Aumeries
Co-Development & Prog : Marc-Olivier Méhu
Technical & hardware support : Manuel Goepfert

Contact : metmap@orbifly.com




SOURCES & CREDITS :

   NOAA